Time;durP1;ratioP1;P1;durP2;ratioP2;P2;SDS_P1;SDS_P2;PMS_P1;PMS_P2;Temp;Humidity;BMP_temperature;BMP_pressure;BME280_temperature;BME280_humidity;BME280_pressure;Samples;Min_cycle;Max_cycle;Signal;HPM_P1;HPM_P2
2023/01/01 00:02:06;;;;;;;5.72;5.12;;;;;;;11.62;72.92;95313.16;1762193;80;21602;-45
2023/01/01 00:04:33;;;;;;;10.53;7.35;;;;;;;11.62;72.74;95320.05;1774415;80;21455;-44
2023/01/01 00:07:00;;;;;;;10.90;7.53;;;;;;;11.58;72.69;95318.02;1774732;80;21096;-44
2023/01/01 00:12:13;;;;;;;10.63;7.37;;;;;;;11.47;72.89;95330.51;1775539;80;21073;-44
2023/01/01 00:14:43;;;;;;;9.08;6.97;;;;;;;11.48;72.95;95329.30;1771867;80;21200;-44
2023/01/01 00:17:10;;;;;;;8.50;6.60;;;;;;;11.50;72.82;95325.52;1777373;80;20946;-44
2023/01/01 00:19:37;;;;;;;8.60;6.25;;;;;;;11.50;72.82;95324.91;1776616;80;21497;-44
2023/01/01 00:22:04;;;;;;;14.55;8.25;;;;;;;11.52;72.77;95334.88;1782850;80;21018;-44
2023/01/01 00:24:30;;;;;;;11.18;7.72;;;;;;;11.53;72.95;95326.78;1772789;80;20994;-43
2023/01/01 00:26:57;;;;;;;8.43;6.20;;;;;;;11.58;72.93;95330.42;1787087;80;22091;-44
2023/01/01 00:29:24;;;;;;;6.83;5.37;;;;;;;11.64;72.71;95328.66;1787081;80;20982;-45
2023/01/01 00:31:50;;;;;;;10.68;7.37;;;;;;;11.74;72.52;95327.54;1775176;80;21064;-43
2023/01/01 00:34:17;;;;;;;8.10;5.83;;;;;;;11.83;72.42;95333.78;1787533;80;20962;-44
2023/01/01 00:36:44;;;;;;;8.63;5.55;;;;;;;11.88;72.22;95331.88;1772668;80;21058;-44
2023/01/01 00:39:10;;;;;;;5.90;5.20;;;;;;;11.95;71.91;95337.94;1767710;80;21216;-44
2023/01/01 00:41:37;;;;;;;7.72;6.00;;;;;;;12.01;71.65;95340.89;1768479;80;20948;-43
2023/01/01 00:44:04;;;;;;;5.45;4.67;;;;;;;11.99;71.65;95342.73;1759164;80;20990;-43
2023/01/01 00:46:31;;;;;;;4.90;4.47;;;;;;;11.96;71.65;95343.62;1761564;80;21073;-48
2023/01/01 00:48:58;;;;;;;5.70;4.97;;;;;;;11.97;71.67;95342.41;1768212;80;20986;-44
2023/01/01 00:51:25;;;;;;;6.00;4.75;;;;;;;12.01;71.60;95343.06;1783916;80;21219;-43
2023/01/01 00:53:52;;;;;;;5.10;4.70;;;;;;;12.02;71.51;95350.12;1782099;80;21530;-44
2023/01/01 00:56:18;;;;;;;5.85;5.28;;;;;;;12.05;71.43;95356.75;1780020;80;21009;-43
2023/01/01 00:58:45;;;;;;;8.20;7.40;;;;;;;12.05;71.44;95353.98;1769116;80;22153;-44
2023/01/01 01:01:12;;;;;;;6.60;5.85;;;;;;;12.04;71.45;95350.45;1776826;80;21560;-43
2023/01/01 01:03:38;;;;;;;8.93;6.17;;;;;;;12.05;71.35;95340.95;1766204;80;21980;-43
2023/01/01 01:06:10;;;;;;;7.28;5.97;;;;;;;12.03;71.38;95340.62;1769875;80;21011;-49
2023/01/01 01:08:39;;;;;;;11.63;7.15;;;;;;;12.01;71.46;95337.55;1761339;80;21399;-45
2023/01/01 01:11:10;;;;;;;13.38;9.63;;;;;;;12.03;71.42;95336.49;1772911;80;20998;-43
2023/01/01 01:13:37;;;;;;;15.37;10.30;;;;;;;12.01;71.52;95337.55;1764783;80;20950;-44
2023/01/01 01:16:22;;;;;;;12.07;7.97;;;;;;;12.01;71.54;95330.65;1761406;80;21165;-43
2023/01/01 01:18:50;;;;;;;7.50;6.22;;;;;;;12.02;71.36;95334.16;1767524;80;20986;-45
2023/01/01 01:21:18;;;;;;;7.75;6.20;;;;;;;11.97;71.34;95327.83;1759632;80;21066;-44
2023/01/01 01:23:46;;;;;;;9.23;7.05;;;;;;;11.91;71.43;95335.13;1759104;80;21007;-44
2023/01/01 01:26:21;;;;;;;15.78;9.23;;;;;;;11.86;71.62;95341.19;1767941;80;21014;-45
2023/01/01 01:28:48;;;;;;;12.00;7.72;;;;;;;11.85;71.84;95334.11;1780356;80;21136;-44
2023/01/01 01:31:15;;;;;;;12.20;8.10;;;;;;;11.91;71.73;95330.36;1766625;80;21045;-44
2023/01/01 01:33:43;;;;;;;11.08;7.30;;;;;;;11.94;71.62;95327.34;1787027;80;21049;-44
2023/01/01 01:36:10;;;;;;;7.55;5.37;;;;;;;11.96;71.50;95331.20;1770323;80;20958;-44
2023/01/01 01:38:39;;;;;;;6.65;4.90;;;;;;;11.95;71.34;95335.19;1785222;80;20938;-43
2023/01/01 01:41:05;;;;;;;6.30;5.35;;;;;;;11.96;71.29;95338.70;1781946;80;21196;-44
2023/01/01 01:43:38;;;;;;;9.30;6.40;;;;;;;11.93;71.28;95333.45;1785282;80;20986;-44
2023/01/01 01:46:12;;;;;;;7.78;6.20;;;;;;;11.92;71.30;95325.63;1781408;80;21010;-43
2023/01/01 01:48:44;;;;;;;10.85;7.65;;;;;;;11.92;71.24;95331.91;1753616;80;21057;-43
2023/01/01 01:51:12;;;;;;;10.72;6.50;;;;;;;11.89;71.25;95327.28;1679950;83;21005;-45
2023/01/01 01:53:44;;;;;;;8.75;5.75;;;;;;;11.85;71.18;95319.73;1666447;84;20970;-44
2023/01/01 01:56:15;;;;;;;10.45;5.50;;;;;;;11.79;71.32;95325.64;1683923;84;21415;-43
2023/01/01 01:58:42;;;;;;;9.38;6.28;;;;;;;11.75;71.61;95331.84;1669881;84;21132;-43
2023/01/01 02:01:08;;;;;;;9.30;6.20;;;;;;;11.77;71.62;95327.28;1677146;83;21209;-44
2023/01/01 02:04:00;;;;;;;10.13;6.92;;;;;;;11.74;71.48;95333.05;1682422;84;21108;-43
2023/01/01 02:06:28;;;;;;;13.75;8.20;;;;;;;11.64;71.59;95327.27;1674785;84;21207;-43
2023/01/01 02:09:01;;;;;;;13.50;8.45;;;;;;;11.54;71.83;95329.70;1675640;84;20986;-44
2023/01/01 02:11:28;;;;;;;11.28;7.72;;;;;;;11.44;71.88;95339.66;1693613;84;21045;-43
2023/01/01 02:13:56;;;;;;;11.33;6.90;;;;;;;11.35;72.38;95334.03;1688865;84;21009;-43
2023/01/01 02:16:50;;;;;;;9.53;6.85;;;;;;;11.34;72.57;95335.25;1671898;84;21060;-43
2023/01/01 02:19:38;;;;;;;13.18;7.40;;;;;;;11.31;72.79;95334.13;1671992;84;21249;-45
2023/01/01 02:22:34;;;;;;;10.55;6.95;;;;;;;11.28;73.15;95331.46;1674310;85;21116;-43
2023/01/01 02:25:14;;;;;;;11.55;7.75;;;;;;;11.29;73.42;95338.52;1632352;86;21030;-43
2023/01/01 02:28:24;;;;;;;10.70;6.55;;;;;;;11.27;73.25;95341.72;1621414;87;21121;-44
2023/01/01 02:30:51;;;;;;;13.40;7.95;;;;;;;11.24;73.53;95341.22;1621800;86;21104;-44
2023/01/01 02:33:22;;;;;;;10.05;7.37;;;;;;;11.19;73.50;95340.36;1613892;86;21289;-42
2023/01/01 02:35:56;;;;;;;9.45;6.55;;;;;;;11.18;73.59;95347.08;1616677;87;21062;-44
2023/01/01 02:38:33;;;;;;;8.25;6.45;;;;;;;11.17;73.66;95343.41;1617967;87;21101;-43
2023/01/01 02:41:05;;;;;;;9.93;6.80;;;;;;;11.12;73.85;95348.83;1611940;87;21213;-47
2023/01/01 02:43:33;;;;;;;10.43;7.03;;;;;;;11.08;74.07;95346.79;1625254;86;20974;-43
2023/01/01 02:46:00;;;;;;;11.18;7.00;;;;;;;11.07;74.08;95343.08;1615643;87;21219;-43
2023/01/01 02:48:43;;;;;;;11.88;6.87;;;;;;;11.07;74.07;95336.98;1645091;85;20968;-44
2023/01/01 02:51:47;;;;;;;9.88;7.10;;;;;;;11.07;74.29;95339.73;1681233;84;21502;-44
2023/01/01 02:54:29;;;;;;;9.18;6.25;;;;;;;11.07;74.22;95345.24;1604785;87;21130;-43
2023/01/01 02:57:10;;;;;;;7.47;6.25;;;;;;;11.03;74.30;95340.45;1673570;84;21542;-43
2023/01/01 03:02:47;;;;;;;11.80;7.65;;;;;;;10.99;74.83;95345.25;1687085;83;21458;-44
2023/01/01 03:08:52;;;;;;;14.87;12.20;;;;;;;11.06;74.69;95353.92;1696249;83;21004;-44
2023/01/01 03:11:21;;;;;;;12.68;10.03;;;;;;;11.06;74.66;95351.96;1694866;83;20972;-43
2023/01/01 03:14:00;;;;;;;18.32;16.57;;;;;;;11.06;74.69;95349.80;1698180;83;21896;-43
2023/01/01 03:16:44;;;;;;;15.53;10.03;;;;;;;11.04;74.78;95349.47;1664000;85;22482;-43
2023/01/01 03:19:17;;;;;;;10.50;8.15;;;;;;;11.03;74.83;95350.67;1541059;92;21023;-42
2023/01/01 03:21:57;;;;;;;9.83;8.78;;;;;;;11.03;74.99;95350.08;1528444;92;21673;-44
2023/01/01 03:24:35;;;;;;;39.23;35.48;;;;;;;11.04;74.95;95361.27;1542999;92;21046;-43
2023/01/01 03:27:10;;;;;;;9.93;8.58;;;;;;;11.05;74.93;95361.43;1536368;92;21117;-43
2023/01/01 03:29:39;;;;;;;19.27;17.50;;;;;;;11.09;74.95;95362.09;1514971;93;21033;-43
2023/01/01 03:32:06;;;;;;;9.33;7.45;;;;;;;11.15;74.80;95363.10;1518580;93;21573;-43
2023/01/01 03:34:37;;;;;;;6.67;6.03;;;;;;;11.17;74.75;95361.30;1522393;93;21085;-43
2023/01/01 03:37:07;;;;;;;6.53;5.83;;;;;;;11.20;74.59;95363.94;1518912;93;21177;-43
2023/01/01 03:39:37;;;;;;;8.88;6.95;;;;;;;11.21;74.51;95365.48;1521574;91;21121;-43
2023/01/01 03:42:25;;;;;;;10.32;6.85;;;;;;;11.22;74.47;95365.68;1516604;93;21807;-43
2023/01/01 03:45:04;;;;;;;9.33;6.83;;;;;;;11.26;74.36;95372.45;1530584;91;21300;-43
2023/01/01 03:47:32;;;;;;;8.53;6.25;;;;;;;11.29;74.21;95382.00;1557709;91;21220;-43
2023/01/01 03:49:59;;;;;;;7.72;6.50;;;;;;;11.32;74.02;95392.14;1582179;87;20995;-43
2023/01/01 03:52:49;;;;;;;7.97;5.40;;;;;;;11.32;73.94;95395.52;1611349;86;21140;-42
2023/01/01 03:55:34;;;;;;;6.33;5.60;;;;;;;11.30;73.91;95393.19;1618299;86;20988;-44
2023/01/01 03:58:34;;;;;;;9.00;6.95;;;;;;;11.29;74.03;95399.11;1625470;87;21043;-42
2023/01/01 04:01:23;;;;;;;8.23;6.65;;;;;;;11.31;73.82;95401.61;1608314;87;21115;-43
2023/01/01 04:03:49;;;;;;;8.23;6.08;;;;;;;11.30;73.65;95397.31;1616592;87;21217;-44
2023/01/01 04:06:18;;;;;;;13.03;7.75;;;;;;;11.23;73.55;95396.14;1632524;82;21133;-43
2023/01/01 04:08:45;;;;;;;10.98;7.85;;;;;;;11.21;73.61;95401.91;1711390;83;20983;-45
2023/01/01 04:14:06;;;;;;;9.53;7.10;;;;;;;11.15;73.60;95397.52;1772019;80;21579;-43
2023/01/01 04:16:33;;;;;;;7.83;6.83;;;;;;;11.13;73.82;95401.33;1764177;80;20954;-44
2023/01/01 04:19:00;;;;;;;14.98;10.68;;;;;;;11.17;73.73;95399.86;1784124;80;21960;-44
2023/01/01 04:21:27;;;;;;;14.40;10.72;;;;;;;11.18;73.65;95395.89;1787239;80;21411;-43
2023/01/01 04:23:53;;;;;;;10.50;8.48;;;;;;;11.17;73.39;95404.75;1761088;79;21109;-45
2023/01/01 04:26:22;;;;;;;7.95;6.65;;;;;;;11.13;73.51;95398.57;1762823;80;21002;-44
2023/01/01 04:28:48;;;;;;;12.05;6.70;;;;;;;11.13;73.62;95395.06;1769711;80;21025;-43
2023/01/01 04:31:15;;;;;;;10.75;6.95;;;;;;;11.08;73.53;95389.47;1768852;80;21213;-43
2023/01/01 04:33:42;;;;;;;12.07;6.60;;;;;;;11.02;73.84;95394.56;1772078;80;21048;-44
2023/01/01 04:36:09;;;;;;;9.00;6.90;;;;;;;11.00;74.12;95388.72;1774859;80;21001;-43
2023/01/01 04:38:36;;;;;;;7.75;6.40;;;;;;;11.02;74.24;95389.81;1762891;80;21009;-43
2023/01/01 04:41:04;;;;;;;12.40;7.08;;;;;;;11.06;74.21;95398.77;1770075;80;21068;-44
2023/01/01 04:43:30;;;;;;;10.55;7.83;;;;;;;11.09;74.05;95402.03;1767293;80;21208;-43
2023/01/01 04:45:59;;;;;;;8.78;6.75;;;;;;;11.11;73.96;95394.10;1765899;79;21515;-44
2023/01/01 04:48:26;;;;;;;8.35;5.80;;;;;;;11.11;73.97;95387.22;1773627;80;21038;-43
2023/01/01 04:51:02;;;;;;;5.12;4.60;;;;;;;11.09;73.89;95382.75;1763413;80;21003;-45
2023/01/01 04:53:32;;;;;;;5.97;4.80;;;;;;;11.08;74.10;95393.59;1773475;80;21447;-44
2023/01/01 04:56:08;;;;;;;5.08;4.53;;;;;;;11.10;74.08;95389.02;1762627;80;21137;-45
2023/01/01 04:58:36;;;;;;;7.22;5.78;;;;;;;11.11;74.07;95389.97;1698383;83;21049;-43
2023/01/01 05:01:03;;;;;;;8.00;6.17;;;;;;;11.13;73.97;95390.31;1707023;82;21463;-44
2023/01/01 05:03:30;;;;;;;7.20;6.15;;;;;;;11.17;73.90;95396.48;1689974;83;21071;-43
2023/01/01 05:06:06;;;;;;;7.40;5.97;;;;;;;11.19;73.68;95392.69;1683383;84;21210;-43
2023/01/01 05:08:37;;;;;;;7.22;6.05;;;;;;;11.19;73.51;95403.70;1649435;85;21243;-43
2023/01/01 05:11:07;;;;;;;8.35;6.97;;;;;;;11.18;73.34;95409.05;1658887;84;21092;-44
2023/01/01 05:13:36;;;;;;;8.35;7.12;;;;;;;11.21;73.33;95419.19;1668055;84;21058;-42
2023/01/01 05:16:05;;;;;;;11.93;8.75;;;;;;;11.22;73.37;95420.77;1666200;84;21086;-43
2023/01/01 05:18:33;;;;;;;15.18;12.07;;;;;;;11.20;73.34;95421.77;1681013;84;21615;-44
2023/01/01 05:21:05;;;;;;;14.50;10.32;;;;;;;11.21;73.39;95423.32;1685232;84;21961;-44
2023/01/01 05:23:32;;;;;;;12.95;10.30;;;;;;;11.23;73.33;95422.31;1587637;88;21117;-44
2023/01/01 05:25:58;;;;;;;13.50;10.75;;;;;;;11.22;73.12;95431.78;1564480;90;21602;-44
2023/01/01 05:28:25;;;;;;;11.83;8.80;;;;;;;11.15;72.99;95434.70;1584801;87;21602;-44
2023/01/01 05:30:52;;;;;;;9.78;7.67;;;;;;;11.05;73.28;95428.89;1557043;89;21137;-44
2023/01/01 05:33:20;;;;;;;11.57;8.55;;;;;;;11.04;73.73;95438.36;1574284;89;20994;-44
2023/01/01 05:35:53;;;;;;;8.93;7.33;;;;;;;11.09;73.80;95439.80;1593062;88;21039;-44
2023/01/01 05:38:20;;;;;;;10.05;7.45;;;;;;;11.08;73.80;95439.03;1614916;86;21153;-44
2023/01/01 05:40:47;;;;;;;10.38;6.85;;;;;;;11.10;73.79;95442.13;1615703;88;21033;-44
2023/01/01 05:43:16;;;;;;;9.15;6.55;;;;;;;11.12;73.72;95439.70;1595074;89;21014;-44
2023/01/01 05:45:43;;;;;;;7.95;6.42;;;;;;;11.11;73.54;95438.16;1600939;88;21243;-43
2023/01/01 05:48:11;;;;;;;11.75;7.40;;;;;;;11.05;73.79;95443.25;1602096;87;21176;-43
2023/01/01 05:50:38;;;;;;;8.33;6.62;;;;;;;11.03;73.80;95451.17;1580871;88;21022;-44
2023/01/01 05:53:05;;;;;;;14.63;7.58;;;;;;;10.98;74.03;95450.33;1575641;89;21651;-43
2023/01/01 05:55:31;;;;;;;11.63;9.20;;;;;;;10.98;74.16;95459.34;1575715;89;21145;-44
2023/01/01 05:57:58;;;;;;;12.20;8.55;;;;;;;11.00;74.21;95455.55;1609619;87;21348;-43
2023/01/01 06:00:25;;;;;;;11.73;9.93;;;;;;;11.02;74.15;95457.89;1641043;84;21046;-44
2023/01/01 06:02:53;;;;;;;11.88;9.68;;;;;;;11.00;74.08;95458.92;1629375;84;21475;-44
2023/01/01 06:05:20;;;;;;;11.53;9.10;;;;;;;11.01;74.00;95450.83;1632665;84;21037;-44
2023/01/01 06:07:47;;;;;;;9.95;7.42;;;;;;;10.96;74.14;95452.13;1648288;85;21037;-44
2023/01/01 06:10:14;;;;;;;6.72;5.87;;;;;;;10.94;74.31;95444.91;1625048;86;21249;-44
2023/01/01 06:12:41;;;;;;;9.83;7.10;;;;;;;10.95;74.41;95446.45;1626430;86;21005;-43
2023/01/01 06:15:09;;;;;;;9.75;6.90;;;;;;;10.95;74.46;95440.19;1630991;84;21278;-43
2023/01/01 06:17:36;;;;;;;6.62;5.80;;;;;;;10.91;74.57;95443.02;1624091;86;21569;-43
2023/01/01 06:20:04;;;;;;;10.55;7.72;;;;;;;10.90;74.62;95447.56;1678599;80;21575;-44
2023/01/01 06:22:36;;;;;;;12.33;7.87;;;;;;;10.91;74.55;95445.77;1779859;80;21110;-43
2023/01/01 06:25:05;;;;;;;10.80;8.43;;;;;;;10.92;74.30;95447.31;1774870;79;21006;-45
2023/01/01 06:27:35;;;;;;;10.15;8.40;;;;;;;10.90;74.03;95451.70;1763173;80;21034;-45
2023/01/01 06:30:05;;;;;;;12.25;8.83;;;;;;;10.84;74.11;95448.69;1778922;80;21006;-44
2023/01/01 06:32:32;;;;;;;11.78;7.87;;;;;;;10.76;74.40;95461.09;1692675;82;21205;-44
2023/01/01 06:34:59;;;;;;;14.18;8.80;;;;;;;10.70;74.61;95459.28;1701387;83;21331;-45
2023/01/01 06:37:27;;;;;;;9.63;7.12;;;;;;;10.67;74.79;95464.86;1684776;83;21109;-44
2023/01/01 06:39:53;;;;;;;13.70;9.00;;;;;;;10.61;74.96;95469.34;1688962;83;21065;-43
2023/01/01 06:42:20;;;;;;;47.20;23.52;;;;;;;10.57;75.22;95461.16;1688155;83;21086;-43
2023/01/01 06:44:47;;;;;;;44.75;23.20;;;;;;;10.59;75.29;95452.48;1711511;82;20981;-42
2023/01/01 06:47:14;;;;;;;20.85;13.05;;;;;;;10.64;75.26;95457.47;1702229;83;21229;-44
2023/01/01 06:49:41;;;;;;;11.70;9.15;;;;;;;10.66;75.02;95452.30;1692313;83;21086;-44
2023/01/01 06:52:09;;;;;;;10.72;8.18;;;;;;;10.66;74.86;95459.19;1709447;83;21568;-43
2023/01/01 06:54:38;;;;;;;11.68;8.05;;;;;;;10.65;74.89;95457.64;1710797;82;21031;-44
2023/01/01 06:57:04;;;;;;;11.10;8.60;;;;;;;10.67;74.85;95460.14;1685240;83;21009;-44
2023/01/01 06:59:31;;;;;;;9.00;8.08;;;;;;;10.69;74.84;95462.47;1700114;83;21171;-44
2023/01/01 07:01:58;;;;;;;11.70;8.60;;;;;;;10.70;74.83;95461.27;1694760;83;21013;-44
2023/01/01 07:04:25;;;;;;;14.55;9.70;;;;;;;10.73;74.88;95465.91;1705023;83;20949;-44
2023/01/01 07:06:52;;;;;;;14.25;10.50;;;;;;;10.77;74.79;95473.64;1667103;83;21705;-43
2023/01/01 07:09:19;;;;;;;10.38;8.55;;;;;;;10.80;74.71;95475.53;1688136;83;21010;-45
2023/01/01 07:11:46;;;;;;;12.85;8.53;;;;;;;10.88;74.60;95481.64;1684993;83;21163;-44
2023/01/01 07:14:12;;;;;;;14.73;8.45;;;;;;;10.98;74.63;95473.11;1706384;83;20933;-44
2023/01/01 07:16:39;;;;;;;16.32;10.90;;;;;;;11.10;74.47;95482.05;1704430;82;21098;-44
2023/01/01 07:19:06;;;;;;;14.75;9.88;;;;;;;11.24;74.27;95478.94;1706043;82;21647;-44
2023/01/01 07:21:46;;;;;;;10.60;7.75;;;;;;;11.38;73.93;95484.05;1697485;83;21071;-44
2023/01/01 07:24:14;;;;;;;12.60;7.37;;;;;;;11.50;73.48;95485.34;1714766;82;21954;-44
2023/01/01 07:26:41;;;;;;;11.97;9.03;;;;;;;11.61;73.10;95489.97;1691744;83;20986;-44
2023/01/01 07:29:08;;;;;;;17.50;13.25;;;;;;;11.73;72.83;95492.77;1688234;83;21180;-45
2023/01/01 07:31:36;;;;;;;20.35;14.00;;;;;;;11.86;72.52;95491.45;1693862;82;21033;-44
2023/01/01 07:34:04;;;;;;;22.30;14.47;;;;;;;11.99;72.25;95491.65;1690115;82;21596;-45
2023/01/01 07:36:31;;;;;;;16.17;10.95;;;;;;;12.13;71.69;95493.21;1756878;80;21216;-48
2023/01/01 07:38:58;;;;;;;23.15;13.35;;;;;;;12.27;71.30;95492.80;1776888;80;20967;-44
2023/01/01 07:41:24;;;;;;;16.07;12.03;;;;;;;12.38;70.97;95494.03;1771566;80;20997;-44
2023/01/01 07:43:51;;;;;;;17.95;13.88;;;;;;;12.53;70.52;95495.91;1774911;80;21171;-44
2023/01/01 07:46:18;;;;;;;17.73;11.95;;;;;;;12.68;69.99;95494.88;1776245;80;21049;-44
2023/01/01 07:48:44;;;;;;;22.07;14.93;;;;;;;12.82;69.39;95495.78;1781756;80;21216;-44
2023/01/01 07:51:11;;;;;;;23.60;15.13;;;;;;;12.94;68.76;95488.13;1772341;79;21112;-46
2023/01/01 07:53:38;;;;;;;23.32;15.20;;;;;;;13.02;68.51;95496.34;1775182;80;20941;-44
2023/01/01 07:56:07;;;;;;;14.55;11.25;;;;;;;13.13;67.86;95503.09;1770450;80;21046;-44
2023/01/01 07:58:34;;;;;;;13.78;9.78;;;;;;;13.17;67.07;95491.90;1780490;80;21045;-44
2023/01/01 08:01:00;;;;;;;16.27;9.88;;;;;;;13.23;66.67;95502.57;1771931;80;21125;-43
2023/01/01 08:03:27;;;;;;;11.15;7.55;;;;;;;13.32;66.29;95501.27;1778331;79;20954;-44
2023/01/01 08:05:54;;;;;;;12.60;8.80;;;;;;;13.44;65.66;95506.00;1775221;80;21002;-44
2023/01/01 08:08:21;;;;;;;11.10;7.87;;;;;;;13.55;65.08;95511.31;1777855;80;21002;-44
2023/01/01 08:10:48;;;;;;;12.35;7.10;;;;;;;13.69;64.31;95503.13;1764293;80;20942;-45
2023/01/01 08:13:15;;;;;;;6.58;5.75;;;;;;;13.80;63.56;95501.53;1777533;80;21154;-45
2023/01/01 08:15:41;;;;;;;7.65;5.80;;;;;;;13.94;62.87;95498.86;1762988;80;20981;-44
2023/01/01 08:18:08;;;;;;;6.72;4.72;;;;;;;14.02;62.03;95505.07;1776677;80;21455;-45
2023/01/01 08:20:35;;;;;;;7.25;5.83;;;;;;;14.15;61.62;95500.88;1780646;80;21514;-44
2023/01/01 08:23:02;;;;;;;6.70;5.50;;;;;;;14.27;61.33;95508.34;1762396;80;22100;-44
2023/01/01 08:25:29;;;;;;;8.05;5.83;;;;;;;14.37;61.24;95505.17;1782951;80;22001;-45
2023/01/01 08:27:56;;;;;;;5.72;4.42;;;;;;;14.49;60.47;95505.09;1775733;80;21515;-45
2023/01/01 08:30:24;;;;;;;7.67;4.53;;;;;;;14.63;60.21;95506.56;1783236;80;21001;-45
2023/01/01 08:32:51;;;;;;;4.53;4.08;;;;;;;14.74;59.65;95506.90;1785819;79;20962;-45
2023/01/01 08:35:18;;;;;;;4.92;3.83;;;;;;;14.84;59.42;95512.02;1779144;80;20974;-44
2023/01/01 08:37:45;;;;;;;5.42;3.83;;;;;;;14.94;58.77;95513.61;1777051;79;21178;-45
2023/01/01 08:40:12;;;;;;;5.05;3.85;;;;;;;15.01;58.75;95508.41;1775957;80;21510;-44
2023/01/01 08:42:39;;;;;;;6.65;4.03;;;;;;;15.07;58.34;95511.51;1777248;80;21010;-45
2023/01/01 08:45:08;;;;;;;7.37;5.12;;;;;;;15.10;58.41;95511.98;1785611;80;21483;-44
2023/01/01 08:47:34;;;;;;;6.60;5.47;;;;;;;15.13;58.63;95513.83;1777139;80;21529;-44
2023/01/01 08:50:02;;;;;;;12.18;6.90;;;;;;;15.17;58.62;95508.15;1778995;80;21359;-43
2023/01/01 08:52:30;;;;;;;9.33;6.85;;;;;;;15.21;58.95;95509.52;1768335;80;21431;-44
2023/01/01 08:54:57;;;;;;;11.30;6.92;;;;;;;15.31;58.79;95505.59;1749465;80;21058;-44
2023/01/01 08:57:24;;;;;;;10.68;6.95;;;;;;;15.39;58.65;95502.66;1776711;80;21056;-45
2023/01/01 08:59:50;;;;;;;8.10;5.87;;;;;;;15.48;58.71;95494.38;1773725;79;20998;-44
2023/01/01 09:02:17;;;;;;;10.18;6.05;;;;;;;15.59;58.25;95493.31;1781405;80;22037;-44
2023/01/01 09:04:45;;;;;;;8.13;5.37;;;;;;;15.76;57.73;95506.27;1772709;80;20931;-44
2023/01/01 09:07:11;;;;;;;8.98;5.97;;;;;;;15.87;57.76;95499.02;1775837;80;21676;-44
2023/01/01 09:09:38;;;;;;;9.73;5.75;;;;;;;16.00;57.18;95503.80;1786919;80;20969;-46
2023/01/01 09:12:08;;;;;;;9.20;5.53;;;;;;;16.03;57.03;95490.98;1781678;80;21084;-45
2023/01/01 09:14:34;;;;;;;12.53;5.22;;;;;;;16.04;56.53;95503.63;1769423;80;21743;-44
2023/01/01 09:17:01;;;;;;;10.18;5.12;;;;;;;15.99;56.58;95498.09;1784194;80;21032;-45
2023/01/01 09:19:28;;;;;;;4.67;4.15;;;;;;;16.00;56.64;95496.86;1785134;80;20949;-46
2023/01/01 09:21:55;;;;;;;6.03;4.62;;;;;;;16.11;56.30;95492.22;1782682;80;21444;-47
2023/01/01 09:24:22;;;;;;;6.80;4.62;;;;;;;16.25;56.00;95490.95;1767104;80;20974;-44
2023/01/01 09:26:48;;;;;;;7.45;4.50;;;;;;;16.36;55.63;95479.54;1769968;80;21193;-45
2023/01/01 09:31:44;;;;;;;5.65;4.47;;;;;;;16.29;55.35;95476.28;1706973;83;21022;-52
2023/01/01 09:34:11;;;;;;;7.87;4.83;;;;;;;16.27;55.55;95475.23;1713486;83;21022;-45
2023/01/01 09:36:37;;;;;;;10.60;6.25;;;;;;;16.28;55.06;95469.98;1704994;83;21025;-45
2023/01/01 09:39:05;;;;;;;9.55;6.30;;;;;;;16.42;55.11;95477.70;1711270;82;21098;-44
2023/01/01 09:41:56;;;;;;;7.00;5.97;;;;;;;16.62;54.39;95470.21;1711473;83;21141;-44
2023/01/01 09:45:01;;;;;;;12.10;6.90;;;;;;;16.76;53.63;95473.72;1710259;83;21569;-44
2023/01/01 09:47:36;;;;;;;7.08;5.15;;;;;;;16.92;53.64;95478.91;1710887;83;21586;-44
2023/01/01 09:50:20;;;;;;;8.65;6.12;;;;;;;16.96;53.32;95478.89;1704352;83;21542;-45
2023/01/01 09:52:59;;;;;;;9.83;5.58;;;;;;;16.93;53.24;95477.02;1639393;85;21212;-45
2023/01/01 09:55:43;;;;;;;7.05;6.03;;;;;;;16.90;52.72;95477.22;1645200;84;21047;-45
2023/01/01 09:58:11;;;;;;;5.92;4.90;;;;;;;16.83;52.47;95479.71;1629469;86;21550;-45
2023/01/01 10:00:42;;;;;;;7.62;6.03;;;;;;;16.78;52.35;95478.19;1635312;86;21042;-45
2023/01/01 10:03:17;;;;;;;11.50;7.97;;;;;;;16.74;52.47;95470.00;1632328;84;21042;-45
2023/01/01 10:05:55;;;;;;;7.80;5.90;;;;;;;16.79;53.24;95474.16;1628779;84;21203;-45
2023/01/01 10:08:43;;;;;;;11.90;7.58;;;;;;;16.77;53.46;95468.31;1621846;86;21048;-44
2023/01/01 10:11:31;;;;;;;11.40;7.80;;;;;;;16.76;53.60;95469.55;1631817;84;21084;-44
2023/01/01 10:13:58;;;;;;;14.90;9.73;;;;;;;16.82;53.71;95473.22;1626316;86;21014;-44
2023/01/01 10:16:39;;;;;;;14.03;9.28;;;;;;;17.05;53.18;95468.31;1629367;86;21554;-44
2023/01/01 10:19:46;;;;;;;12.37;8.13;;;;;;;17.33;52.14;95470.50;1569123;91;21188;-47
2023/01/01 10:22:21;;;;;;;9.90;6.95;;;;;;;17.53;51.47;95463.75;1499318;94;21123;-46
2023/01/01 10:25:00;;;;;;;6.65;5.40;;;;;;;17.61;51.46;95462.77;1488846;95;21040;-44
2023/01/01 10:27:40;;;;;;;5.53;4.00;;;;;;;17.74;51.01;95462.66;1409231;100;21085;-45
2023/01/01 10:30:21;;;;;;;6.42;4.08;;;;;;;17.97;50.29;95463.23;1437268;99;21261;-44
2023/01/01 10:32:50;;;;;;;7.42;5.05;;;;;;;18.20;49.87;95463.17;1443178;99;21275;-45
2023/01/01 10:35:23;;;;;;;7.17;4.53;;;;;;;18.43;49.20;95456.77;1443046;99;21146;-46
2023/01/01 10:37:51;;;;;;;8.08;3.87;;;;;;;18.62;48.36;95455.31;1443041;98;21662;-45
2023/01/01 10:40:21;;;;;;;11.83;5.62;;;;;;;18.79;48.43;95452.17;1443044;99;21082;-46
2023/01/01 10:42:50;;;;;;;9.13;6.37;;;;;;;18.83;47.93;95460.35;1443166;99;21220;-45
2023/01/01 10:45:22;;;;;;;9.15;4.05;;;;;;;18.74;48.27;95459.83;1442907;99;21182;-46
2023/01/01 10:48:18;;;;;;;11.53;4.37;;;;;;;18.68;47.70;95458.95;1442971;99;21177;-45
2023/01/01 10:50:53;;;;;;;11.75;5.87;;;;;;;18.67;47.87;95451.84;1459083;98;21252;-44
2023/01/01 10:53:31;;;;;;;18.87;10.20;;;;;;;18.83;47.40;95451.98;1421640;100;21084;-44
2023/01/01 10:56:08;;;;;;;5.72;4.15;;;;;;;19.05;47.23;95448.13;1425346;100;21561;-44
2023/01/01 10:58:39;;;;;;;10.08;4.10;;;;;;;19.43;46.05;95445.93;1433947;98;21253;-45
2023/01/01 11:01:19;;;;;;;6.03;4.50;;;;;;;19.94;45.35;95439.69;1435345;98;21126;-46
2023/01/01 11:04:14;;;;;;;5.20;3.35;;;;;;;20.42;43.46;95438.70;1431813;100;21101;-45
2023/01/01 11:06:42;;;;;;;7.62;2.77;;;;;;;20.51;43.55;95437.89;1431735;100;21321;-45
2023/01/01 11:09:30;;;;;;;10.23;3.83;;;;;;;20.51;43.38;95438.52;1431739;98;21053;-45
2023/01/01 11:11:59;;;;;;;7.45;2.70;;;;;;;20.54;43.59;95436.15;1432081;98;21906;-45
2023/01/01 11:14:30;;;;;;;4.53;2.60;;;;;;;20.59;43.07;95443.16;1431992;99;21136;-47
2023/01/01 11:16:58;;;;;;;5.75;2.02;;;;;;;20.59;42.98;95430.58;1454323;97;21056;-45
2023/01/01 11:19:39;;;;;;;9.55;2.08;;;;;;;20.62;41.24;95438.00;1476071;95;21751;-45
2023/01/01 11:22:05;;;;;;;9.13;3.45;;;;;;;20.65;41.40;95437.01;1465809;96;21090;-45
2023/01/01 11:24:35;;;;;;;7.95;2.17;;;;;;;20.63;41.50;95429.75;1449982;97;21888;-45
2023/01/01 11:27:25;;;;;;;5.37;2.33;;;;;;;20.90;41.37;95439.66;1445661;97;21061;-45
2023/01/01 11:29:53;;;;;;;8.30;2.30;;;;;;;21.38;40.46;95423.67;1442014;98;21073;-46
2023/01/01 11:32:31;;;;;;;2.80;2.20;;;;;;;21.94;39.67;95425.47;1488470;93;21081;-46
2023/01/01 11:35:05;;;;;;;10.50;3.33;;;;;;;22.14;38.73;95428.86;1501449;94;21008;-45
2023/01/01 11:37:36;;;;;;;4.70;2.90;;;;;;;22.06;38.17;95431.38;1499248;94;21974;-45
2023/01/01 11:40:05;;;;;;;3.85;2.77;;;;;;;21.99;38.24;95418.49;1505736;91;21073;-46
2023/01/01 11:42:33;;;;;;;3.40;2.95;;;;;;;22.21;38.39;95430.53;1565098;88;21127;-46
2023/01/01 11:45:04;;;;;;;9.48;1.77;;;;;;;22.57;37.80;95416.98;1605283;88;21159;-46
2023/01/01 11:47:41;;;;;;;6.92;2.20;;;;;;;23.06;36.74;95412.63;1604233;88;21121;-46
2023/01/01 11:50:19;;;;;;;8.45;2.45;;;;;;;23.47;36.26;95413.59;1601773;88;21418;-49
2023/01/01 11:52:48;;;;;;;5.58;2.20;;;;;;;23.62;34.83;95403.61;1605737;88;21049;-46
2023/01/01 11:55:41;;;;;;;13.45;3.35;;;;;;;23.30;34.26;95406.63;1606473;88;21081;-45
2023/01/01 11:58:38;;;;;;;6.42;2.90;;;;;;;22.86;35.10;95401.03;1663935;83;20998;-44
2023/01/01 12:01:33;;;;;;;41.33;4.33;;;;;;;22.62;35.51;95409.20;1710600;83;21068;-45
2023/01/01 12:04:17;;;;;;;3.37;1.80;;;;;;;22.62;35.93;95407.80;1675298;83;21872;-46